sensor_id;sensor_type;location;lat;lon;timestamp;pressure;altitude;pressure_sealevel;temperature;humidity
41102;BME280;26845;50.190;19.178;2023-01-23T00:01:04;100061.98;;;2.48;92.19
41102;BME280;26845;50.190;19.178;2023-01-23T00:03:31;100065.21;;;2.46;91.89
41102;BME280;26845;50.190;19.178;2023-01-23T00:05:59;100066.67;;;2.41;91.78
41102;BME280;26845;50.190;19.178;2023-01-23T00:08:26;100069.89;;;2.41;91.98
41102;BME280;26845;50.190;19.178;2023-01-23T00:10:52;100075.13;;;2.43;92.14
41102;BME280;26845;50.190;19.178;2023-01-23T00:13:18;100077.50;;;2.48;92.48
41102;BME280;26845;50.190;19.178;2023-01-23T00:15:45;100076.67;;;2.52;92.27
41102;BME280;26845;50.190;19.178;2023-01-23T00:18:13;100079.77;;;2.53;92.27
41102;BME280;26845;50.190;19.178;2023-01-23T00:20:40;100090.09;;;2.55;92.18
41102;BME280;26845;50.190;19.178;2023-01-23T00:23:07;100096.25;;;2.55;92.15
41102;BME280;26845;50.190;19.178;2023-01-23T00:25:34;100102.83;;;2.53;91.99
41102;BME280;26845;50.190;19.178;2023-01-23T00:28:04;100103.95;;;2.52;92.03
41102;BME280;26845;50.190;19.178;2023-01-23T00:30:29;100108.29;;;2.49;91.85
41102;BME280;26845;50.190;19.178;2023-01-23T00:32:55;100115.90;;;2.45;91.72
41102;BME280;26845;50.190;19.178;2023-01-23T00:35:22;100122.17;;;2.34;91.41
41102;BME280;26845;50.190;19.178;2023-01-23T00:37:49;100125.97;;;2.10;90.98
41102;BME280;26845;50.190;19.178;2023-01-23T00:40:15;100126.53;;;2.05;91.53
41102;BME280;26845;50.190;19.178;2023-01-23T00:42:41;100128.32;;;2.11;92.17
41102;BME280;26845;50.190;19.178;2023-01-23T00:45:08;100125.11;;;2.18;92.18
41102;BME280;26845;50.190;19.178;2023-01-23T00:47:33;100126.73;;;2.24;92.30
41102;BME280;26845;50.190;19.178;2023-01-23T00:50:00;100130.46;;;2.29;92.28
41102;BME280;26845;50.190;19.178;2023-01-23T00:52:26;100135.49;;;2.32;92.25
41102;BME280;26845;50.190;19.178;2023-01-23T00:54:53;100137.75;;;2.34;92.16
41102;BME280;26845;50.190;19.178;2023-01-23T00:57:19;100138.46;;;2.37;92.18
41102;BME280;26845;50.190;19.178;2023-01-23T00:59:45;100141.45;;;2.40;92.17
41102;BME280;26845;50.190;19.178;2023-01-23T01:02:11;100133.24;;;2.43;92.03
41102;BME280;26845;50.190;19.178;2023-01-23T01:04:38;100130.02;;;2.46;92.21
41102;BME280;26845;50.190;19.178;2023-01-23T01:07:04;100129.77;;;2.46;92.17
41102;BME280;26845;50.190;19.178;2023-01-23T01:09:30;100128.27;;;2.45;92.13
41102;BME280;26845;50.190;19.178;2023-01-23T01:11:56;100122.52;;;2.47;92.06
41102;BME280;26845;50.190;19.178;2023-01-23T01:14:22;100118.62;;;2.46;92.02
41102;BME280;26845;50.190;19.178;2023-01-23T01:16:49;100126.61;;;2.45;91.92
41102;BME280;26845;50.190;19.178;2023-01-23T01:19:16;100132.02;;;2.45;92.12
41102;BME280;26845;50.190;19.178;2023-01-23T01:21:43;100130.39;;;2.43;92.00
41102;BME280;26845;50.190;19.178;2023-01-23T01:24:09;100133.34;;;2.41;91.91
41102;BME280;26845;50.190;19.178;2023-01-23T01:26:35;100135.70;;;2.38;91.77
41102;BME280;26845;50.190;19.178;2023-01-23T01:29:02;100136.21;;;2.38;91.82
41102;BME280;26845;50.190;19.178;2023-01-23T01:31:29;100140.01;;;2.39;91.99
41102;BME280;26845;50.190;19.178;2023-01-23T01:33:55;100142.60;;;2.40;91.93
41102;BME280;26845;50.190;19.178;2023-01-23T01:36:22;100137.28;;;2.40;91.85
41102;BME280;26845;50.190;19.178;2023-01-23T01:38:48;100140.77;;;2.39;91.88
41102;BME280;26845;50.190;19.178;2023-01-23T01:41:15;100134.20;;;2.40;92.12
41102;BME280;26845;50.190;19.178;2023-01-23T01:43:42;100135.56;;;2.42;92.15
41102;BME280;26845;50.190;19.178;2023-01-23T01:51:17;100144.94;;;2.49;92.17
41102;BME280;26845;50.190;19.178;2023-01-23T01:53:46;100147.27;;;2.51;92.11
41102;BME280;26845;50.190;19.178;2023-01-23T01:56:15;100151.41;;;2.51;92.06
41102;BME280;26845;50.190;19.178;2023-01-23T01:58:45;100154.80;;;2.53;92.10
41102;BME280;26845;50.190;19.178;2023-01-23T02:01:12;100152.98;;;2.54;91.99
41102;BME280;26845;50.190;19.178;2023-01-23T02:03:38;100155.35;;;2.53;92.10
41102;BME280;26845;50.190;19.178;2023-01-23T02:06:04;100154.42;;;2.53;92.14
41102;BME280;26845;50.190;19.178;2023-01-23T02:09:00;100154.35;;;2.52;92.06
41102;BME280;26845;50.190;19.178;2023-01-23T02:11:29;100150.19;;;2.51;92.08
41102;BME280;26845;50.190;19.178;2023-01-23T02:13:54;100153.52;;;2.50;91.94
41102;BME280;26845;50.190;19.178;2023-01-23T02:16:26;100153.45;;;2.50;92.03
41102;BME280;26845;50.190;19.178;2023-01-23T02:19:11;100154.43;;;2.49;92.02
41102;BME280;26845;50.190;19.178;2023-01-23T02:21:41;100153.20;;;2.50;92.11
41102;BME280;26845;50.190;19.178;2023-01-23T02:24:22;100157.52;;;2.52;92.05
41102;BME280;26845;50.190;19.178;2023-01-23T02:26:51;100164.09;;;2.55;92.07
41102;BME280;26845;50.190;19.178;2023-01-23T02:29:17;100166.31;;;2.54;91.91
41102;BME280;26845;50.190;19.178;2023-01-23T02:31:45;100167.72;;;2.51;91.78
41102;BME280;26845;50.190;19.178;2023-01-23T02:34:15;100176.21;;;2.46;91.75
41102;BME280;26845;50.190;19.178;2023-01-23T02:36:44;100173.20;;;2.45;91.87
41102;BME280;26845;50.190;19.178;2023-01-23T02:39:18;100177.69;;;2.46;91.96
41102;BME280;26845;50.190;19.178;2023-01-23T02:41:46;100177.64;;;2.48;92.09
41102;BME280;26845;50.190;19.178;2023-01-23T02:44:19;100178.25;;;2.49;92.06
41102;BME280;26845;50.190;19.178;2023-01-23T02:46:49;100179.52;;;2.49;91.95
41102;BME280;26845;50.190;19.178;2023-01-23T02:49:16;100176.63;;;2.50;91.90
41102;BME280;26845;50.190;19.178;2023-01-23T02:51:45;100177.43;;;2.51;92.07
41102;BME280;26845;50.190;19.178;2023-01-23T02:54:10;100174.29;;;2.51;91.90
41102;BME280;26845;50.190;19.178;2023-01-23T02:56:36;100181.77;;;2.54;91.99
41102;BME280;26845;50.190;19.178;2023-01-23T02:59:03;100183.46;;;2.55;91.94
41102;BME280;26845;50.190;19.178;2023-01-23T03:01:50;100185.23;;;2.55;91.87
41102;BME280;26845;50.190;19.178;2023-01-23T03:04:16;100184.99;;;2.57;91.94
41102;BME280;26845;50.190;19.178;2023-01-23T03:06:42;100184.73;;;2.57;91.80
41102;BME280;26845;50.190;19.178;2023-01-23T03:09:12;100185.64;;;2.56;91.78
41102;BME280;26845;50.190;19.178;2023-01-23T03:11:39;100186.64;;;2.53;91.80
41102;BME280;26845;50.190;19.178;2023-01-23T03:14:09;100183.26;;;2.51;91.73
41102;BME280;26845;50.190;19.178;2023-01-23T03:16:37;100183.54;;;2.52;91.89
41102;BME280;26845;50.190;19.178;2023-01-23T03:19:06;100179.76;;;2.54;92.00
41102;BME280;26845;50.190;19.178;2023-01-23T03:21:33;100182.84;;;2.56;92.04
41102;BME280;26845;50.190;19.178;2023-01-23T03:24:02;100185.05;;;2.60;92.01
41102;BME280;26845;50.190;19.178;2023-01-23T03:26:29;100182.73;;;2.60;91.98
41102;BME280;26845;50.190;19.178;2023-01-23T03:28:55;100183.41;;;2.61;91.87
41102;BME280;26845;50.190;19.178;2023-01-23T03:31:39;100189.87;;;2.59;91.74
41102;BME280;26845;50.190;19.178;2023-01-23T03:34:06;100192.65;;;2.59;91.97
41102;BME280;26845;50.190;19.178;2023-01-23T03:36:32;100193.89;;;2.60;91.95
41102;BME280;26845;50.190;19.178;2023-01-23T03:39:25;100190.46;;;2.61;91.88
41102;BME280;26845;50.190;19.178;2023-01-23T03:42:10;100193.75;;;2.61;91.83
41102;BME280;26845;50.190;19.178;2023-01-23T03:44:36;100195.27;;;2.62;92.05
41102;BME280;26845;50.190;19.178;2023-01-23T03:47:03;100192.86;;;2.59;91.78
41102;BME280;26845;50.190;19.178;2023-01-23T03:49:30;100192.19;;;2.55;91.74
41102;BME280;26845;50.190;19.178;2023-01-23T03:51:56;100193.30;;;2.54;91.85
41102;BME280;26845;50.190;19.178;2023-01-23T03:54:22;100194.95;;;2.50;91.63
41102;BME280;26845;50.190;19.178;2023-01-23T03:56:48;100199.20;;;2.48;91.70
41102;BME280;26845;50.190;19.178;2023-01-23T03:59:14;100196.38;;;2.40;91.52
41102;BME280;26845;50.190;19.178;2023-01-23T04:01:40;100190.93;;;2.36;91.50
41102;BME280;26845;50.190;19.178;2023-01-23T04:04:07;100190.50;;;2.34;91.79
41102;BME280;26845;50.190;19.178;2023-01-23T04:06:33;100183.02;;;2.29;91.66
41102;BME280;26845;50.190;19.178;2023-01-23T04:08:59;100183.97;;;2.23;91.67
41102;BME280;26845;50.190;19.178;2023-01-23T04:11:26;100188.80;;;2.18;91.72
41102;BME280;26845;50.190;19.178;2023-01-23T04:13:53;100190.73;;;2.13;91.90
41102;BME280;26845;50.190;19.178;2023-01-23T04:16:20;100195.01;;;2.09;91.72
41102;BME280;26845;50.190;19.178;2023-01-23T04:18:48;100200.20;;;2.04;91.86
41102;BME280;26845;50.190;19.178;2023-01-23T04:21:14;100205.35;;;1.97;91.83
41102;BME280;26845;50.190;19.178;2023-01-23T04:23:40;100204.98;;;1.94;92.09
41102;BME280;26845;50.190;19.178;2023-01-23T04:26:06;100211.98;;;1.96;92.25
41102;BME280;26845;50.190;19.178;2023-01-23T04:28:32;100215.49;;;2.03;92.58
41102;BME280;26845;50.190;19.178;2023-01-23T04:30:58;100217.20;;;2.09;92.63
41102;BME280;26845;50.190;19.178;2023-01-23T04:33:26;100216.61;;;2.14;92.81
41102;BME280;26845;50.190;19.178;2023-01-23T04:35:57;100221.40;;;2.15;92.34
41102;BME280;26845;50.190;19.178;2023-01-23T04:38:26;100222.10;;;2.13;92.34
41102;BME280;26845;50.190;19.178;2023-01-23T04:40:54;100226.13;;;2.16;92.59
41102;BME280;26845;50.190;19.178;2023-01-23T04:43:19;100228.94;;;2.20;92.62
41102;BME280;26845;50.190;19.178;2023-01-23T04:45:51;100229.17;;;2.23;92.63
41102;BME280;26845;50.190;19.178;2023-01-23T04:48:17;100233.55;;;2.23;92.48
41102;BME280;26845;50.190;19.178;2023-01-23T04:50:43;100236.51;;;2.19;92.38
41102;BME280;26845;50.190;19.178;2023-01-23T04:53:09;100231.65;;;2.18;92.21
41102;BME280;26845;50.190;19.178;2023-01-23T04:55:35;100232.35;;;2.14;92.08
41102;BME280;26845;50.190;19.178;2023-01-23T04:58:02;100240.84;;;2.08;92.16
41102;BME280;26845;50.190;19.178;2023-01-23T05:00:28;100242.82;;;2.07;92.43
41102;BME280;26845;50.190;19.178;2023-01-23T05:02:55;100247.00;;;2.07;92.44
41102;BME280;26845;50.190;19.178;2023-01-23T05:05:20;100245.88;;;2.06;92.39
41102;BME280;26845;50.190;19.178;2023-01-23T05:07:47;100252.69;;;2.09;92.60
41102;BME280;26845;50.190;19.178;2023-01-23T05:10:17;100256.86;;;2.10;92.42
41102;BME280;26845;50.190;19.178;2023-01-23T05:12:43;100256.58;;;2.10;92.44
41102;BME280;26845;50.190;19.178;2023-01-23T05:15:11;100256.51;;;1.98;92.15
41102;BME280;26845;50.190;19.178;2023-01-23T05:17:37;100255.68;;;1.92;92.33
41102;BME280;26845;50.190;19.178;2023-01-23T05:20:04;100260.93;;;1.85;92.20
41102;BME280;26845;50.190;19.178;2023-01-23T05:22:33;100260.63;;;1.80;92.31
41102;BME280;26845;50.190;19.178;2023-01-23T05:24:59;100258.86;;;1.75;92.57
41102;BME280;26845;50.190;19.178;2023-01-23T05:27:25;100257.36;;;1.73;92.65
41102;BME280;26845;50.190;19.178;2023-01-23T05:29:52;100258.63;;;1.73;92.73
41102;BME280;26845;50.190;19.178;2023-01-23T05:32:18;100259.48;;;1.77;92.94
41102;BME280;26845;50.190;19.178;2023-01-23T05:34:44;100258.84;;;1.81;92.98
41102;BME280;26845;50.190;19.178;2023-01-23T05:37:10;100258.11;;;1.85;92.96
41102;BME280;26845;50.190;19.178;2023-01-23T05:39:36;100257.83;;;1.82;92.67
41102;BME280;26845;50.190;19.178;2023-01-23T05:42:03;100262.41;;;1.78;92.71
41102;BME280;26845;50.190;19.178;2023-01-23T05:44:29;100264.84;;;1.75;92.71
41102;BME280;26845;50.190;19.178;2023-01-23T05:46:55;100268.39;;;1.80;93.12
41102;BME280;26845;50.190;19.178;2023-01-23T05:49:21;100269.36;;;1.84;93.03
41102;BME280;26845;50.190;19.178;2023-01-23T05:51:47;100268.27;;;1.84;92.98
41102;BME280;26845;50.190;19.178;2023-01-23T05:54:13;100268.29;;;1.87;92.95
41102;BME280;26845;50.190;19.178;2023-01-23T05:56:39;100264.90;;;1.87;93.04
41102;BME280;26845;50.190;19.178;2023-01-23T05:59:06;100266.72;;;1.87;93.07
41102;BME280;26845;50.190;19.178;2023-01-23T06:01:32;100267.44;;;1.89;93.15
41102;BME280;26845;50.190;19.178;2023-01-23T06:03:58;100268.48;;;1.94;93.32
41102;BME280;26845;50.190;19.178;2023-01-23T06:06:25;100271.90;;;1.94;93.24
41102;BME280;26845;50.190;19.178;2023-01-23T06:08:50;100275.14;;;1.90;93.03
41102;BME280;26845;50.190;19.178;2023-01-23T06:11:17;100282.98;;;1.90;93.34
41102;BME280;26845;50.190;19.178;2023-01-23T06:13:43;100282.88;;;1.83;92.73
41102;BME280;26845;50.190;19.178;2023-01-23T06:16:09;100285.40;;;1.73;92.85
41102;BME280;26845;50.190;19.178;2023-01-23T06:18:35;100292.40;;;1.68;93.18
41102;BME280;26845;50.190;19.178;2023-01-23T06:21:02;100302.16;;;1.65;93.20
41102;BME280;26845;50.190;19.178;2023-01-23T06:23:28;100310.31;;;1.68;93.50
41102;BME280;26845;50.190;19.178;2023-01-23T06:25:59;100311.14;;;1.71;93.33
41102;BME280;26845;50.190;19.178;2023-01-23T06:28:24;100313.70;;;1.72;93.47
41102;BME280;26845;50.190;19.178;2023-01-23T06:30:51;100312.34;;;1.73;93.45
41102;BME280;26845;50.190;19.178;2023-01-23T06:33:17;100316.63;;;1.71;93.42
41102;BME280;26845;50.190;19.178;2023-01-23T06:35:43;100324.42;;;1.72;93.60
41102;BME280;26845;50.190;19.178;2023-01-23T06:38:09;100328.36;;;1.75;93.85
41102;BME280;26845;50.190;19.178;2023-01-23T06:40:35;100329.86;;;1.77;93.70
41102;BME280;26845;50.190;19.178;2023-01-23T06:43:03;100331.13;;;1.78;93.81
41102;BME280;26845;50.190;19.178;2023-01-23T06:45:28;100331.48;;;1.81;93.75
41102;BME280;26845;50.190;19.178;2023-01-23T06:47:54;100333.11;;;1.82;93.85
41102;BME280;26845;50.190;19.178;2023-01-23T06:50:22;100335.20;;;1.84;93.82
41102;BME280;26845;50.190;19.178;2023-01-23T06:52:49;100337.51;;;1.87;93.90
41102;BME280;26845;50.190;19.178;2023-01-23T06:55:15;100338.63;;;1.91;93.94
41102;BME280;26845;50.190;19.178;2023-01-23T06:57:41;100337.80;;;1.92;93.94
41102;BME280;26845;50.190;19.178;2023-01-23T07:00:08;100339.29;;;1.96;93.97
41102;BME280;26845;50.190;19.178;2023-01-23T07:02:36;100349.05;;;1.99;94.01
41102;BME280;26845;50.190;19.178;2023-01-23T07:05:02;100350.23;;;2.04;94.02
41102;BME280;26845;50.190;19.178;2023-01-23T07:07:28;100353.42;;;2.06;93.95
41102;BME280;26845;50.190;19.178;2023-01-23T07:09:55;100354.98;;;2.08;93.84
41102;BME280;26845;50.190;19.178;2023-01-23T07:12:21;100349.26;;;2.11;93.98
41102;BME280;26845;50.190;19.178;2023-01-23T07:14:47;100350.59;;;2.14;94.09
41102;BME280;26845;50.190;19.178;2023-01-23T07:17:13;100351.54;;;2.16;93.97
41102;BME280;26845;50.190;19.178;2023-01-23T07:19:39;100355.86;;;2.14;93.79
41102;BME280;26845;50.190;19.178;2023-01-23T07:22:05;100356.36;;;2.10;93.59
41102;BME280;26845;50.190;19.178;2023-01-23T07:24:32;100355.60;;;2.05;93.66
41102;BME280;26845;50.190;19.178;2023-01-23T07:26:58;100358.63;;;2.00;93.86
41102;BME280;26845;50.190;19.178;2023-01-23T07:29:24;100361.21;;;2.04;94.15
41102;BME280;26845;50.190;19.178;2023-01-23T07:31:50;100366.30;;;2.07;94.06
41102;BME280;26845;50.190;19.178;2023-01-23T07:34:18;100365.64;;;2.05;94.09
41102;BME280;26845;50.190;19.178;2023-01-23T07:36:43;100364.46;;;2.04;94.00
41102;BME280;26845;50.190;19.178;2023-01-23T07:39:09;100359.65;;;1.99;93.94
41102;BME280;26845;50.190;19.178;2023-01-23T07:41:38;100361.28;;;1.96;93.94
41102;BME280;26845;50.190;19.178;2023-01-23T07:44:15;100364.92;;;1.98;94.24
41102;BME280;26845;50.190;19.178;2023-01-23T07:46:45;100365.55;;;1.99;94.32
41102;BME280;26845;50.190;19.178;2023-01-23T07:49:12;100374.31;;;2.02;94.36
41102;BME280;26845;50.190;19.178;2023-01-23T07:51:42;100378.08;;;2.06;94.41
41102;BME280;26845;50.190;19.178;2023-01-23T07:54:14;100377.45;;;2.10;94.41
41102;BME280;26845;50.190;19.178;2023-01-23T07:56:43;100377.98;;;2.07;94.08
41102;BME280;26845;50.190;19.178;2023-01-23T07:59:13;100379.59;;;2.01;94.04
41102;BME280;26845;50.190;19.178;2023-01-23T08:01:44;100382.45;;;1.96;94.08
41102;BME280;26845;50.190;19.178;2023-01-23T08:04:10;100387.05;;;1.97;94.39
41102;BME280;26845;50.190;19.178;2023-01-23T08:06:36;100387.16;;;1.98;94.43
41102;BME280;26845;50.190;19.178;2023-01-23T08:09:03;100391.20;;;1.92;94.49
41102;BME280;26845;50.190;19.178;2023-01-23T08:11:30;100392.99;;;1.90;94.39
41102;BME280;26845;50.190;19.178;2023-01-23T08:13:56;100394.41;;;1.88;94.47
41102;BME280;26845;50.190;19.178;2023-01-23T08:16:25;100397.70;;;1.88;94.70
41102;BME280;26845;50.190;19.178;2023-01-23T08:18:51;100397.23;;;1.86;94.68
41102;BME280;26845;50.190;19.178;2023-01-23T08:21:17;100394.53;;;1.84;94.62
41102;BME280;26845;50.190;19.178;2023-01-23T08:23:43;100393.86;;;1.88;94.89
41102;BME280;26845;50.190;19.178;2023-01-23T08:26:13;100398.31;;;1.96;95.01
41102;BME280;26845;50.190;19.178;2023-01-23T08:28:41;100398.43;;;2.05;95.08
41102;BME280;26845;50.190;19.178;2023-01-23T08:31:10;100399.33;;;2.15;95.13
41102;BME280;26845;50.190;19.178;2023-01-23T08:33:37;100400.92;;;2.25;95.22
41102;BME280;26845;50.190;19.178;2023-01-23T08:36:05;100405.48;;;2.32;94.78
41102;BME280;26845;50.190;19.178;2023-01-23T08:38:32;100401.96;;;2.33;94.93
41102;BME280;26845;50.190;19.178;2023-01-23T08:41:01;100404.11;;;2.38;94.94
41102;BME280;26845;50.190;19.178;2023-01-23T08:43:29;100410.05;;;2.44;94.98
41102;BME280;26845;50.190;19.178;2023-01-23T08:45:56;100410.18;;;2.49;94.85
41102;BME280;26845;50.190;19.178;2023-01-23T08:48:24;100411.86;;;2.55;95.01
41102;BME280;26845;50.190;19.178;2023-01-23T08:50:57;100414.48;;;2.64;95.05
41102;BME280;26845;50.190;19.178;2023-01-23T08:53:23;100411.78;;;2.67;94.83
41102;BME280;26845;50.190;19.178;2023-01-23T08:55:49;100412.94;;;2.71;94.91
41102;BME280;26845;50.190;19.178;2023-01-23T08:58:15;100411.20;;;2.67;94.54
41102;BME280;26845;50.190;19.178;2023-01-23T09:00:41;100412.23;;;2.57;94.35
41102;BME280;26845;50.190;19.178;2023-01-23T09:03:08;100409.27;;;2.53;94.53
41102;BME280;26845;50.190;19.178;2023-01-23T09:05:35;100407.57;;;2.49;94.47
41102;BME280;26845;50.190;19.178;2023-01-23T09:08:01;100408.48;;;2.46;94.68
41102;BME280;26845;50.190;19.178;2023-01-23T09:10:27;100409.02;;;2.47;94.79
41102;BME280;26845;50.190;19.178;2023-01-23T09:12:54;100414.29;;;2.49;94.60
41102;BME280;26845;50.190;19.178;2023-01-23T09:15:21;100415.58;;;2.50;94.75
41102;BME280;26845;50.190;19.178;2023-01-23T09:17:47;100414.64;;;2.52;94.81
41102;BME280;26845;50.190;19.178;2023-01-23T09:20:13;100410.84;;;2.51;94.71
41102;BME280;26845;50.190;19.178;2023-01-23T09:22:40;100411.66;;;2.44;94.57
41102;BME280;26845;50.190;19.178;2023-01-23T09:25:08;100408.69;;;2.41;94.70
41102;BME280;26845;50.190;19.178;2023-01-23T09:27:36;100411.00;;;2.42;94.83
41102;BME280;26845;50.190;19.178;2023-01-23T09:30:06;100414.86;;;2.45;94.80
41102;BME280;26845;50.190;19.178;2023-01-23T09:32:43;100416.80;;;2.49;94.94
41102;BME280;26845;50.190;19.178;2023-01-23T09:35:12;100415.52;;;2.47;94.85
41102;BME280;26845;50.190;19.178;2023-01-23T09:37:45;100414.56;;;2.46;94.98
41102;BME280;26845;50.190;19.178;2023-01-23T09:40:33;100410.89;;;2.50;95.16
41102;BME280;26845;50.190;19.178;2023-01-23T09:43:15;100410.99;;;2.53;95.02
41102;BME280;26845;50.190;19.178;2023-01-23T09:46:00;100408.34;;;2.56;95.21
41102;BME280;26845;50.190;19.178;2023-01-23T09:48:36;100411.23;;;2.60;94.98
41102;BME280;26845;50.190;19.178;2023-01-23T09:51:14;100408.44;;;2.60;95.02
41102;BME280;26845;50.190;19.178;2023-01-23T09:53:44;100408.42;;;2.61;95.13
41102;BME280;26845;50.190;19.178;2023-01-23T09:56:39;100411.64;;;2.61;95.07
41102;BME280;26845;50.190;19.178;2023-01-23T09:59:30;100412.10;;;2.65;95.10
41102;BME280;26845;50.190;19.178;2023-01-23T10:02:16;100408.13;;;2.66;95.11
41102;BME280;26845;50.190;19.178;2023-01-23T10:04:51;100408.97;;;2.70;95.14
41102;BME280;26845;50.190;19.178;2023-01-23T10:08:03;100403.25;;;2.68;95.14
41102;BME280;26845;50.190;19.178;2023-01-23T10:10:48;100403.44;;;2.62;95.03
41102;BME280;26845;50.190;19.178;2023-01-23T10:22:14;100408.05;;;2.60;95.16
41102;BME280;26845;50.190;19.178;2023-01-23T10:27:21;100399.59;;;2.67;95.33
41102;BME280;26845;50.190;19.178;2023-01-23T10:32:48;100405.77;;;2.68;95.31
41102;BME280;26845;50.190;19.178;2023-01-23T10:40:59;100395.34;;;2.61;95.26
41102;BME280;26845;50.190;19.178;2023-01-23T10:43:37;100389.03;;;2.53;95.24
41102;BME280;26845;50.190;19.178;2023-01-23T10:46:14;100388.08;;;2.46;95.50
41102;BME280;26845;50.190;19.178;2023-01-23T10:48:47;100384.13;;;2.40;95.46
41102;BME280;26845;50.190;19.178;2023-01-23T10:56:35;100379.94;;;2.36;95.80
41102;BME280;26845;50.190;19.178;2023-01-23T10:59:04;100383.74;;;2.40;96.05
41102;BME280;26845;50.190;19.178;2023-01-23T11:01:33;100383.48;;;2.42;96.02
41102;BME280;26845;50.190;19.178;2023-01-23T11:04:20;100385.06;;;2.38;96.07
41102;BME280;26845;50.190;19.178;2023-01-23T11:07:11;100378.40;;;2.39;95.93
41102;BME280;26845;50.190;19.178;2023-01-23T11:12:19;100369.20;;;2.56;96.12
41102;BME280;26845;50.190;19.178;2023-01-23T11:14:46;100365.66;;;2.67;96.08
41102;BME280;26845;50.190;19.178;2023-01-23T11:17:22;100359.80;;;2.76;96.00
41102;BME280;26845;50.190;19.178;2023-01-23T11:19:52;100352.92;;;2.85;95.94
41102;BME280;26845;50.190;19.178;2023-01-23T11:22:28;100353.03;;;2.94;95.95
41102;BME280;26845;50.190;19.178;2023-01-23T11:24:55;100353.28;;;3.02;95.99
41102;BME280;26845;50.190;19.178;2023-01-23T11:27:29;100350.85;;;3.10;95.93
41102;BME280;26845;50.190;19.178;2023-01-23T11:33:01;100352.88;;;3.30;95.82
41102;BME280;26845;50.190;19.178;2023-01-23T11:38:30;100341.95;;;3.32;95.67
41102;BME280;26845;50.190;19.178;2023-01-23T11:41:02;100344.54;;;3.37;95.55
41102;BME280;26845;50.190;19.178;2023-01-23T11:43:29;100347.05;;;3.30;95.07
41102;BME280;26845;50.190;19.178;2023-01-23T11:46:09;100344.11;;;3.32;95.40
41102;BME280;26845;50.190;19.178;2023-01-23T11:51:42;100339.00;;;3.31;95.20
41102;BME280;26845;50.190;19.178;2023-01-23T11:54:37;100333.11;;;3.35;95.50
41102;BME280;26845;50.190;19.178;2023-01-23T11:57:10;100329.98;;;3.35;95.14
41102;BME280;26845;50.190;19.178;2023-01-23T12:08:14;100324.64;;;3.47;95.16
41102;BME280;26845;50.190;19.178;2023-01-23T12:10:55;100322.92;;;3.47;95.10
41102;BME280;26845;50.190;19.178;2023-01-23T12:24:16;100319.91;;;3.51;94.74
41102;BME280;26845;50.190;19.178;2023-01-23T12:27:02;100319.14;;;3.43;94.60
41102;BME280;26845;50.190;19.178;2023-01-23T12:35:49;100321.63;;;3.29;94.60
41102;BME280;26845;50.190;19.178;2023-01-23T12:41:34;100320.74;;;3.21;94.79
41102;BME280;26845;50.190;19.178;2023-01-23T12:46:52;100321.81;;;3.14;94.87
41102;BME280;26845;50.190;19.178;2023-01-23T12:49:32;100318.11;;;3.16;94.89
41102;BME280;26845;50.190;19.178;2023-01-23T12:54:57;100323.73;;;3.19;95.03
41102;BME280;26845;50.190;19.178;2023-01-23T12:57:28;100331.59;;;3.20;94.77
41102;BME280;26845;50.190;19.178;2023-01-23T13:00:17;100334.84;;;3.17;94.91
41102;BME280;26845;50.190;19.178;2023-01-23T13:06:03;100331.42;;;3.20;95.15
41102;BME280;26845;50.190;19.178;2023-01-23T13:08:39;100330.25;;;3.25;95.08
41102;BME280;26845;50.190;19.178;2023-01-23T13:11:46;100329.47;;;3.30;95.15
41102;BME280;26845;50.190;19.178;2023-01-23T13:16:58;100332.73;;;3.29;95.02
41102;BME280;26845;50.190;19.178;2023-01-23T13:19:29;100334.28;;;3.30;94.97
41102;BME280;26845;50.190;19.178;2023-01-23T13:27:54;100333.94;;;3.27;94.98
41102;BME280;26845;50.190;19.178;2023-01-23T13:32:52;100339.23;;;3.28;94.93
41102;BME280;26845;50.190;19.178;2023-01-23T13:52:21;100347.81;;;3.09;95.16
41102;BME280;26845;50.190;19.178;2023-01-23T13:55:29;100343.73;;;3.08;95.16
41102;BME280;26845;50.190;19.178;2023-01-23T13:58:19;100344.76;;;3.08;95.28
41102;BME280;26845;50.190;19.178;2023-01-23T14:01:03;100341.39;;;3.10;95.36
41102;BME280;26845;50.190;19.178;2023-01-23T14:03:51;100340.76;;;3.14;95.38
41102;BME280;26845;50.190;19.178;2023-01-23T14:06:38;100342.30;;;3.16;95.38
41102;BME280;26845;50.190;19.178;2023-01-23T14:09:22;100343.53;;;3.19;95.36
41102;BME280;26845;50.190;19.178;2023-01-23T14:11:56;100350.66;;;3.19;95.24
41102;BME280;26845;50.190;19.178;2023-01-23T14:14:23;100352.11;;;3.11;95.18
41102;BME280;26845;50.190;19.178;2023-01-23T14:17:10;100355.77;;;3.03;95.05
41102;BME280;26845;50.190;19.178;2023-01-23T14:22:13;100354.40;;;2.89;95.28
41102;BME280;26845;50.190;19.178;2023-01-23T14:24:45;100357.19;;;2.77;95.13
41102;BME280;26845;50.190;19.178;2023-01-23T14:27:34;100360.16;;;2.72;95.51
41102;BME280;26845;50.190;19.178;2023-01-23T14:30:14;100368.85;;;2.65;95.57
41102;BME280;26845;50.190;19.178;2023-01-23T14:32:42;100371.27;;;2.57;95.66
41102;BME280;26845;50.190;19.178;2023-01-23T14:35:29;100367.30;;;2.51;95.95
41102;BME280;26845;50.190;19.178;2023-01-23T14:37:59;100368.48;;;2.48;95.90
41102;BME280;26845;50.190;19.178;2023-01-23T14:40:25;100371.60;;;2.46;96.08
41102;BME280;26845;50.190;19.178;2023-01-23T14:43:02;100371.63;;;2.44;95.92
41102;BME280;26845;50.190;19.178;2023-01-23T14:45:30;100373.98;;;2.42;95.91
41102;BME280;26845;50.190;19.178;2023-01-23T14:47:58;100368.30;;;2.39;96.01
41102;BME280;26845;50.190;19.178;2023-01-23T14:50:26;100363.70;;;2.36;96.16
41102;BME280;26845;50.190;19.178;2023-01-23T14:53:15;100363.27;;;2.31;96.14
41102;BME280;26845;50.190;19.178;2023-01-23T14:55:45;100364.16;;;2.26;96.16